Time;durP1;ratioP1;P1;durP2;ratioP2;P2;SDS_P1;SDS_P2;PMS_P1;PMS_P2;Temp;Humidity;BMP_temperature;BMP_pressure;BME280_temperature;BME280_humidity;BME280_pressure;Samples;Min_cycle;Max_cycle;Signal;HPM_P1;HPM_P2
2022/06/01 00:01:05;;;;;;;4.20;2.60;;;16.70;68.10;;;;;;5026418;28;24447;-64
2022/06/01 00:03:36;;;;;;;4.25;2.50;;;16.70;68.50;;;;;;5029981;28;24556;-64
2022/06/01 00:06:03;;;;;;;2.10;2.00;;;16.70;68.30;;;;;;5031412;28;20233;-66
2022/06/01 00:08:30;;;;;;;3.47;2.03;;;16.70;68.40;;;;;;5028986;28;20636;-66
2022/06/01 00:10:57;;;;;;;2.73;2.03;;;16.70;68.50;;;;;;5010373;28;20633;-65
2022/06/01 00:13:25;;;;;;;6.50;2.80;;;16.50;69.00;;;;;;5011006;28;20622;-67
2022/06/01 00:15:52;;;;;;;3.70;2.70;;;16.40;69.50;;;;;;5023413;28;20654;-65
2022/06/01 00:18:20;;;;;;;2.50;2.30;;;16.40;70.00;;;;;;5030178;28;20670;-70
2022/06/01 00:20:47;;;;;;;2.53;2.33;;;16.40;70.10;;;;;;5011447;28;21178;-65
2022/06/01 00:23:14;;;;;;;3.13;2.43;;;16.30;70.10;;;;;;5010711;28;20613;-64
2022/06/01 00:25:42;;;;;;;2.10;2.00;;;16.30;70.50;;;;;;5010724;28;20736;-65
2022/06/01 00:28:09;;;;;;;2.50;2.40;;;16.20;70.80;;;;;;5020690;28;20670;-66
2022/06/01 00:30:37;;;;;;;3.00;2.63;;;16.20;71.30;;;;;;5019083;28;20768;-65
2022/06/01 00:33:04;;;;;;;2.67;2.47;;;16.00;71.90;;;;;;5010835;28;20716;-67
2022/06/01 00:35:31;;;;;;;3.50;2.23;;;16.00;72.50;;;;;;5020319;28;20731;-65
2022/06/01 00:37:58;;;;;;;2.60;2.40;;;15.90;72.80;;;;;;5028678;28;20688;-66
2022/06/01 00:40:27;;;;;;;4.63;2.60;;;15.90;72.70;;;;;;5029482;28;21211;-65
2022/06/01 00:43:00;;;;;;;2.43;2.10;;;15.80;72.70;;;;;;5018841;28;21062;-66
2022/06/01 00:45:30;;;;;;;3.10;2.90;;;15.80;73.10;;;;;;5009777;28;20617;-65
2022/06/01 00:47:57;;;;;;;4.27;2.93;;;15.70;73.20;;;;;;5018394;28;20664;-66
2022/06/01 00:50:32;;;;;;;2.50;2.40;;;15.70;73.80;;;;;;5028905;28;21215;-66
2022/06/01 00:53:05;;;;;;;2.40;2.17;;;15.60;74.10;;;;;;5029944;28;20642;-67
2022/06/01 00:55:35;;;;;;;3.47;3.00;;;15.60;74.50;;;;;;5029067;28;20644;-68
2022/06/01 00:58:10;;;;;;;4.47;2.90;;;15.60;74.40;;;;;;5021408;28;20645;-65
2022/06/01 01:00:39;;;;;;;3.13;2.87;;;15.50;74.40;;;;;;5008950;28;20719;-65
2022/06/01 01:03:10;;;;;;;3.27;2.43;;;15.50;74.20;;;;;;5010219;28;20790;-65
2022/06/01 01:05:40;;;;;;;2.97;2.73;;;15.50;74.30;;;;;;5008201;28;20629;-66
2022/06/01 01:08:09;;;;;;;2.50;2.40;;;15.50;74.70;;;;;;5009373;28;20641;-66
2022/06/01 01:10:36;;;;;;;3.10;2.80;;;15.50;74.40;;;;;;5009056;28;20672;-65
2022/06/01 01:13:06;;;;;;;3.70;3.07;;;15.50;75.20;;;;;;5012454;28;21185;-68
2022/06/01 01:15:52;;;;;;;9.20;3.60;;;15.50;75.50;;;;;;5019488;28;20647;-65
2022/06/01 01:18:23;;;;;;;9.17;2.67;;;15.40;75.50;;;;;;5029546;28;21213;-65
2022/06/01 01:21:01;;;;;;;5.63;3.17;;;15.30;75.60;;;;;;5028447;28;20632;-65
2022/06/01 01:23:57;;;;;;;2.93;2.60;;;15.20;76.40;;;;;;5029669;28;20624;-65
2022/06/01 01:26:25;;;;;;;3.90;2.80;;;15.20;76.80;;;;;;5030976;28;20652;-65
2022/06/01 01:28:53;;;;;;;2.87;2.67;;;15.10;77.30;;;;;;5033267;28;20659;-65
2022/06/01 01:31:22;;;;;;;4.17;3.13;;;15.10;77.30;;;;;;5013643;28;20660;-65
2022/06/01 01:33:50;;;;;;;3.80;3.10;;;15.10;77.60;;;;;;5013940;28;20696;-65
2022/06/01 01:36:23;;;;;;;3.50;3.13;;;15.10;78.00;;;;;;5014110;28;20629;-65
2022/06/01 01:38:55;;;;;;;5.30;3.00;;;15.10;77.80;;;;;;5012211;28;20784;-65
2022/06/01 01:41:44;;;;;;;4.67;3.20;;;15.10;77.90;;;;;;5013399;28;20665;-65
2022/06/01 01:44:25;;;;;;;2.63;2.47;;;15.00;78.10;;;;;;5021984;28;20988;-67
2022/06/01 01:46:53;;;;;;;3.43;3.07;;;15.00;78.60;;;;;;5032344;28;20727;-63
2022/06/01 01:49:22;;;;;;;2.80;2.60;;;15.00;79.00;;;;;;5032695;28;20636;-66
2022/06/01 01:51:51;;;;;;;2.70;2.50;;;14.90;79.60;;;;;;5030705;28;20655;-65
2022/06/01 01:54:27;;;;;;;3.90;2.43;;;14.90;80.40;;;;;;5025893;28;20632;-65
2022/06/01 01:57:22;;;;;;;3.83;2.53;;;14.90;81.20;;;;;;5034111;28;20612;-68
2022/06/01 01:59:54;;;;;;;3.83;2.60;;;14.80;81.80;;;;;;5012246;28;20639;-65
2022/06/01 02:02:27;;;;;;;2.93;2.60;;;14.80;82.90;;;;;;5012740;28;21267;-65
2022/06/01 02:08:04;;;;;;;3.83;2.67;;;14.80;84.10;;;;;;5011861;28;20724;-65
2022/06/01 02:13:18;;;;;;;2.70;2.37;;;14.50;86.20;;;;;;5019778;28;20640;-64
2022/06/01 02:15:47;;;;;;;2.70;2.53;;;14.40;87.60;;;;;;5032786;28;20624;-66
2022/06/01 02:18:19;;;;;;;2.60;2.40;;;14.40;88.30;;;;;;5031121;28;20937;-65
2022/06/01 02:20:52;;;;;;;2.93;2.20;;;14.40;88.70;;;14.95;nan;100345.84;5014006;28;20991;-66
2022/06/01 02:23:19;;;;;;;2.73;2.53;;;14.50;89.20;;;15.11;nan;100350.47;5011918;28;20659;-65
2022/06/01 02:25:52;;;;;;;4.30;2.60;;;14.60;88.80;;;15.20;nan;100355.69;5010575;28;21183;-67
2022/06/01 02:28:19;;;;;;;2.83;2.63;;;14.60;88.80;;;15.29;nan;100346.91;5023329;28;20660;-65
2022/06/01 02:30:47;;;;;;;4.87;2.40;;;14.80;88.40;;;15.38;nan;100350.47;5031963;28;20662;-68
2022/06/01 02:33:22;;;;;;;2.33;2.23;;;14.80;88.30;;;15.47;nan;100347.00;5027864;28;20756;-66
2022/06/01 02:35:53;;;;;;;2.33;2.23;;;14.90;88.00;;;15.53;nan;100355.13;4994977;28;20625;-65
2022/06/01 02:38:40;;;;;;;2.40;2.30;;;15.00;88.10;;;15.62;nan;100349.94;5020110;28;20663;-68
2022/06/01 02:42:25;;;;;;;2.73;2.47;;;15.10;87.70;;;15.65;nan;100354.91;5031440;28;20627;-65
2022/06/01 02:43:55;;;;;;;2.60;2.40;;;15.10;87.70;;;15.66;nan;100354.75;5030704;28;21038;-68
2022/06/01 02:46:23;;;;;;;2.80;2.50;;;15.10;88.00;;;15.59;nan;100356.31;5032515;28;20652;-65
2022/06/01 02:48:51;;;;;;;2.53;2.33;;;15.00;88.00;;;15.68;nan;100363.31;5009893;28;20661;-66
2022/06/01 02:51:19;;;;;;;2.27;2.17;;;15.10;87.70;;;15.70;nan;100363.16;5012061;28;20669;-65
2022/06/01 02:53:46;;;;;;;2.40;2.20;;;15.10;87.50;;;15.65;nan;100353.09;5023899;28;20648;-64
2022/06/01 02:56:14;;;;;;;2.60;2.40;;;15.10;87.40;;;15.68;nan;100365.09;5032381;28;20624;-66
2022/06/01 02:58:41;;;;;;;3.03;2.73;;;15.10;87.40;;;15.67;nan;100366.94;5020745;28;21014;-67
2022/06/01 03:01:09;;;;;;;11.30;4.13;;;15.10;87.10;;;15.65;nan;100365.44;5028668;28;20616;-65
2022/06/01 03:03:36;;;;;;;4.87;3.27;;;15.10;87.00;;;15.60;nan;100362.41;5018703;28;20734;-65
2022/06/01 03:06:03;;;;;;;4.17;3.63;;;15.10;87.30;;;15.61;nan;100364.88;5013905;28;20640;-68
2022/06/01 03:08:32;;;;;;;3.10;2.90;;;15.00;87.00;;;15.49;nan;100364.28;5009745;28;21022;-65
2022/06/01 03:10:59;;;;;;;3.50;3.20;;;15.00;87.50;;;15.51;nan;100359.69;5011428;28;20633;-65
2022/06/01 03:13:26;;;;;;;3.97;3.37;;;15.00;88.20;;;15.46;nan;100364.56;5011623;28;20632;-65
2022/06/01 03:15:54;;;;;;;3.67;3.33;;;14.90;89.80;;;15.37;nan;100375.94;5023563;28;21031;-66
2022/06/01 03:18:22;;;;;;;6.30;3.40;;;14.80;90.50;;;15.36;nan;100382.16;5029672;28;20667;-66
2022/06/01 03:20:49;;;;;;;7.50;3.50;;;14.80;91.40;;;15.32;nan;100378.19;5016725;28;21049;-65
2022/06/01 03:23:16;;;;;;;3.73;3.33;;;14.80;91.70;;;15.14;nan;100384.38;5011410;28;20668;-66
2022/06/01 03:25:43;;;;;;;4.33;3.40;;;14.70;92.00;;;15.08;nan;100385.75;5009969;28;20989;-65
2022/06/01 03:28:10;;;;;;;5.03;3.27;;;14.60;92.00;;;14.98;nan;100379.72;5016574;28;20679;-67
2022/06/01 03:30:37;;;;;;;3.47;2.53;;;14.50;92.50;;;14.95;nan;100372.13;5029396;28;20624;-66
2022/06/01 03:33:04;;;;;;;6.50;2.97;;;14.40;92.90;;;14.94;nan;100369.63;5027593;28;20637;-66
2022/06/01 03:35:32;;;;;;;3.10;2.77;;;14.40;93.00;;;14.83;nan;100388.19;5011058;28;21072;-66
2022/06/01 03:38:00;;;;;;;4.80;3.20;;;14.30;93.50;;;14.82;nan;100379.50;5009612;28;21300;-65
2022/06/01 03:40:31;;;;;;;5.70;3.30;;;14.30;93.30;;;14.83;nan;100382.94;5009351;28;21177;-66
2022/06/01 03:42:59;;;;;;;2.90;2.57;;;14.30;92.70;;;14.84;nan;100390.69;5010523;28;21230;-73
2022/06/01 03:48:14;;;;;;;2.60;2.40;;;14.30;91.70;;;14.80;nan;100384.06;5028916;28;20664;-66
2022/06/01 03:50:44;;;;;;;4.20;2.40;;;14.30;91.60;;;14.91;nan;100383.03;5022247;28;20633;-66
2022/06/01 03:53:11;;;;;;;3.27;2.50;;;14.40;91.90;;;14.92;nan;100382.09;5009602;28;20625;-65
2022/06/01 03:55:38;;;;;;;2.80;2.40;;;14.40;92.10;;;14.98;nan;100398.09;4992461;28;20990;-70
2022/06/01 03:58:05;;;;;;;2.93;2.20;;;14.40;92.10;;;14.96;nan;100397.44;5012059;28;20652;-66
2022/06/01 04:00:33;;;;;;;2.63;2.40;;;14.40;92.10;;;15.06;nan;100400.00;5024911;28;21202;-66
2022/06/01 04:03:00;;;;;;;7.43;2.63;;;14.50;92.10;;;15.03;nan;100398.50;5029266;28;20664;-68
2022/06/01 04:05:27;;;;;;;2.93;2.70;;;14.50;92.40;;;14.99;nan;100398.94;5030051;28;20638;-65
2022/06/01 04:07:54;;;;;;;3.57;2.67;;;14.40;92.50;;;15.00;nan;100405.84;5030493;28;20629;-65
2022/06/01 04:10:22;;;;;;;4.77;2.80;;;14.50;92.50;;;15.08;nan;100406.78;5022960;28;20639;-65
2022/06/01 04:12:50;;;;;;;3.60;2.30;;;14.60;92.40;;;15.35;nan;100398.91;5028180;28;20632;-64
2022/06/01 04:15:17;;;;;;;3.93;2.47;;;14.80;91.60;;;15.66;nan;100407.34;5030673;28;20619;-65
2022/06/01 04:17:44;;;;;;;3.23;2.80;;;15.20;90.80;;;15.93;nan;100406.50;5021472;28;20640;-65
2022/06/01 04:20:12;;;;;;;3.70;2.80;;;15.50;90.30;;;16.18;nan;100403.09;5029637;28;21033;-65
2022/06/01 04:22:41;;;;;;;4.87;2.80;;;15.80;89.30;;;16.47;nan;100418.63;5030275;28;20661;-68
2022/06/01 04:25:14;;;;;;;3.23;2.93;;;16.10;88.20;;;16.79;nan;100414.44;5022112;28;20636;-64
2022/06/01 04:27:41;;;;;;;4.40;2.40;;;16.40;87.60;;;17.05;nan;100417.06;5030072;28;20636;-65
2022/06/01 04:30:12;;;;;;;2.83;2.63;;;16.70;86.20;;;17.28;nan;100420.81;5024195;28;20792;-65
2022/06/01 04:32:39;;;;;;;4.80;3.53;;;16.90;84.80;;;17.57;nan;100416.00;5022231;28;20643;-65
2022/06/01 04:35:07;;;;;;;4.10;3.77;;;17.20;84.00;;;17.87;nan;100417.22;5029523;28;21264;-64
2022/06/01 04:37:35;;;;;;;5.80;3.30;;;17.50;82.80;;;18.14;nan;100416.97;5030948;28;20644;-65
2022/06/01 04:40:09;;;;;;;4.20;3.00;;;17.80;82.00;;;18.18;nan;100418.28;5024410;28;20628;-67
2022/06/01 04:42:38;;;;;;;4.10;3.70;;;17.80;81.40;;;18.11;nan;100417.28;5023485;28;20668;-65
2022/06/01 04:45:08;;;;;;;3.87;3.23;;;17.70;82.20;;;17.95;nan;100417.28;5029056;28;20997;-68
2022/06/01 04:47:35;;;;;;;3.47;3.10;;;17.50;82.90;;;17.75;nan;100419.38;5024541;28;20636;-64
2022/06/01 04:50:02;;;;;;;7.60;3.33;;;17.30;83.70;;;17.64;nan;100421.47;5027414;28;20656;-67
2022/06/01 04:52:30;;;;;;;5.10;3.53;;;17.10;84.50;;;17.68;nan;100423.63;5028709;28;20635;-68
2022/06/01 04:54:57;;;;;;;4.80;3.70;;;17.10;85.10;;;17.95;nan;100425.19;5012636;28;20648;-65
2022/06/01 04:57:24;;;;;;;4.13;3.33;;;17.40;85.20;;;18.32;nan;100412.34;5010205;28;20632;-67
2022/06/01 04:59:51;;;;;;;5.50;3.60;;;17.90;84.50;;;18.70;nan;100418.78;5023217;28;21283;-67
2022/06/01 05:02:18;;;;;;;4.90;3.37;;;18.30;82.30;;;19.03;nan;100424.84;5020039;28;21037;-66
2022/06/01 05:04:45;;;;;;;;;;;18.70;80.90;;;19.54;nan;100432.28;5020636;28;20486;-66
2022/06/01 05:07:12;;;;;;;;;;;19.20;79.50;;;19.98;nan;100429.88;5019319;28;19970;-66
2022/06/01 05:09:39;;;;;;;;;;;19.70;77.00;;;20.42;nan;100417.66;5014318;28;19921;-65
2022/06/01 05:12:06;;;;;;;;;;;20.10;74.20;;;20.35;nan;100421.22;5010041;28;19940;-69
2022/06/01 05:14:33;;;;;;;;;;;20.10;70.40;;;20.19;nan;100416.00;5010128;28;20141;-65
2022/06/01 05:17:00;;;;;;;;;;;19.80;71.50;;;20.05;nan;100420.25;5030872;28;19921;-68
2022/06/01 05:19:28;;;;;;;;;;;19.60;72.40;;;19.82;nan;100422.06;5011445;28;19951;-68
2022/06/01 05:21:57;;;;;;;;;;;19.30;72.50;;;19.66;nan;100414.19;5013709;28;19921;-64
2022/06/01 05:24:24;;;;;;;;;;;19.10;72.80;;;19.80;nan;100419.59;5029191;28;20402;-66
2022/06/01 05:26:51;;;;;;;;;;;19.20;73.90;;;20.07;nan;100423.53;5030128;28;19929;-64
2022/06/01 05:29:18;;;;;;;;;;;19.60;74.30;;;20.24;nan;100426.91;5025609;28;19940;-66
2022/06/01 05:31:45;;;;;;;;;;;19.80;74.00;;;20.55;nan;100435.63;5023359;28;20350;-64
2022/06/01 05:34:12;;;;;;;;;;;20.10;73.90;;;20.79;nan;100438.03;5028084;28;19949;-68
2022/06/01 05:36:38;;;;;;;;;;;20.40;72.90;;;20.79;nan;100438.03;5029671;28;19929;-68
2022/06/01 05:39:05;;;;;;;;;;;20.40;73.10;;;20.59;nan;100435.06;5026621;28;20291;-67
2022/06/01 05:41:33;;;;;;;;;;;20.10;70.50;;;20.43;nan;100437.03;5025019;28;19936;-68
2022/06/01 05:44:00;;;;;;;;;;;19.90;71.50;;;20.63;nan;100439.03;5028345;28;19956;-66
2022/06/01 05:46:27;;;;;;;;;;;20.10;71.90;;;20.63;nan;100432.91;5029487;28;19928;-65
2022/06/01 05:48:54;;;;;;;;;;;20.20;72.20;;;20.76;nan;100430.47;5024722;28;19921;-65
2022/06/01 05:51:21;;;;;;;;;;;20.30;72.40;;;21.18;nan;100443.97;5026992;28;20445;-65
2022/06/01 05:53:48;;;;;;;;;;;20.70;72.30;;;21.50;nan;100446.25;5020393;28;19948;-66
2022/06/01 05:56:15;;;;;;;;;;;21.10;69.90;;;21.93;nan;100435.75;5027960;28;19929;-67
2022/06/01 05:58:42;;;;;;;;;;;21.60;68.50;;;21.98;nan;100433.31;5026418;28;19921;-67
2022/06/01 06:01:09;;;;;;;;;;;21.60;67.60;;;22.29;nan;100433.84;5031397;28;19921;-69
2022/06/01 06:03:36;;;;;;;;;;;21.80;67.30;;;22.90;nan;100438.47;5022842;28;19922;-66
2022/06/01 06:06:12;;;;;;;;;;;22.60;65.00;;;23.51;nan;100441.31;4993916;28;19932;-67
2022/06/01 06:08:41;;;;;;;;;;;23.20;64.70;;;24.32;nan;100449.13;5015675;28;19940;-68
2022/06/01 06:11:13;;;;;;;;;;;24.00;62.10;;;25.20;nan;100462.06;5013678;28;19921;-67
2022/06/01 06:13:40;;;;;;;;;;;25.00;59.30;;;26.10;nan;100463.81;5024121;28;19933;-66
2022/06/01 06:16:07;;;;;;;;;;;25.90;58.10;;;26.45;nan;100464.22;5033870;28;19921;-68
2022/06/01 06:18:35;;;;;;;;;;;26.30;55.10;;;26.04;nan;100468.16;5030907;28;19937;-66
2022/06/01 06:21:02;;;;;;;;;;;25.80;54.70;;;26.00;nan;100466.09;5024196;28;19921;-66
2022/06/01 06:23:29;;;;;;;;;;;25.50;55.00;;;26.77;nan;100468.47;5032993;28;20119;-66
2022/06/01 06:25:56;;;;;;;;;;;26.40;53.70;;;27.61;nan;100472.19;5031912;28;19928;-67
2022/06/01 06:28:23;;;;;;;;;;;27.30;51.60;;;28.58;nan;100472.94;5032317;28;19921;-66
2022/06/01 06:30:51;;;;;;;;;;;28.30;50.10;;;29.27;nan;100470.28;5033615;28;19921;-66
2022/06/01 06:33:18;;;;;;;1.93;1.83;;;28.90;49.10;;;30.29;nan;100471.22;5017310;28;20210;-65
2022/06/01 06:35:45;;;;;;;2.40;2.20;;;30.00;47.20;;;31.03;nan;100467.38;5016222;28;24444;-65
2022/06/01 06:38:12;;;;;;;1.60;1.50;;;30.80;44.90;;;31.39;nan;100474.91;5033058;28;20229;-65
2022/06/01 06:40:39;;;;;;;2.47;2.30;;;31.20;44.30;;;31.93;nan;100478.50;5029266;28;21206;-66
2022/06/01 06:43:06;;;;;;;3.63;1.80;;;31.70;43.70;;;31.84;nan;100471.94;5012647;28;20657;-66
2022/06/01 06:45:33;;;;;;;2.20;2.10;;;31.70;42.80;;;31.12;nan;100465.88;5015653;28;20640;-66
2022/06/01 06:48:00;;;;;;;2.40;2.30;;;30.70;43.60;;;31.49;nan;100466.97;5025214;28;24452;-66
2022/06/01 06:50:28;;;;;;;1.90;1.80;;;31.20;43.10;;;31.59;nan;100471.66;5015401;28;20644;-66
2022/06/01 06:53:16;;;;;;;2.40;2.20;;;31.20;43.20;;;32.77;nan;100474.22;5032883;28;20620;-65
2022/06/01 06:55:43;;;;;;;2.20;2.10;;;32.30;42.60;;;32.81;nan;100464.53;5032714;28;20702;-65
2022/06/01 06:58:11;;;;;;;2.07;1.97;;;32.50;42.10;;;33.30;nan;100473.22;5033758;28;21034;-66
2022/06/01 07:00:39;;;;;;;2.00;1.80;;;32.80;42.40;;;34.13;nan;100480.31;5026124;28;20633;-67
2022/06/01 07:03:06;;;;;;;2.27;2.17;;;33.70;41.50;;;34.16;nan;100477.09;5013100;28;20660;-65
2022/06/01 07:08:19;;;;;;;2.67;2.10;;;34.20;41.50;;;35.65;nan;100487.25;5032497;28;21061;-66
2022/06/01 07:10:46;;;;;;;6.33;2.30;;;35.20;40.80;;;35.61;nan;100489.69;5032750;28;20636;-67
2022/06/01 07:13:14;;;;;;;3.13;2.50;;;35.20;39.70;;;35.80;nan;100487.13;5033755;28;20647;-65
2022/06/01 07:15:41;;;;;;;2.30;2.17;;;35.20;39.80;;;36.78;nan;100482.41;5020229;28;21033;-66
2022/06/01 07:18:09;;;;;;;2.60;2.40;;;36.30;38.70;;;37.02;nan;100485.19;5030117;28;20684;-66
2022/06/01 07:20:36;;;;;;;2.07;1.97;;;36.50;38.30;;;37.60;nan;100485.91;5030919;28;20651;-65
2022/06/01 07:23:03;;;;;;;2.90;2.20;;;37.10;37.70;;;36.85;nan;100482.88;5032197;28;21047;-67
2022/06/01 07:25:31;;;;;;;2.20;2.00;;;36.40;37.50;;;37.59;nan;100481.56;5015977;28;20641;-64
2022/06/01 07:27:58;;;;;;;2.33;2.23;;;36.90;37.70;;;38.51;nan;100494.41;5013253;28;20636;-66
2022/06/01 07:30:25;;;;;;;2.03;1.93;;;37.90;37.30;;;;;;5016502;28;21152;-66
2022/06/01 07:32:52;;;;;;;2.60;2.50;;;39.30;36.30;;;;;;5012487;28;21209;-65
2022/06/01 07:35:19;;;;;;;2.40;2.30;;;40.10;35.60;;;;;;5025496;28;20638;-69
2022/06/01 07:43:20;;;;;;;2.80;2.60;;;39.70;35.40;;;;;;5011316;28;20667;-66
2022/06/01 07:45:49;;;;;;;3.97;2.23;;;40.10;35.00;;;;;;5016360;28;21206;-68
2022/06/01 07:48:17;;;;;;;1.60;1.60;;;40.40;34.40;;;;;;5031908;28;21217;-67
2022/06/01 07:51:04;;;;;;;2.07;2.07;;;41.10;34.20;;;;;;5018372;28;21030;-66
2022/06/01 07:53:31;;;;;;;2.30;2.20;;;41.10;34.20;;;;;;5011266;28;20641;-69
2022/06/01 07:55:58;;;;;;;3.17;2.90;;;41.70;33.50;;;;;;5011263;28;21183;-65
2022/06/01 07:58:25;;;;;;;2.07;1.97;;;40.40;33.60;;;;;;5015167;28;20652;-65
2022/06/01 08:00:52;;;;;;;2.10;2.10;;;38.90;34.30;;;;;;5031687;28;20715;-66
2022/06/01 08:03:20;;;;;;;4.53;2.50;;;38.80;34.60;;;;;;5031424;28;20763;-66
2022/06/01 08:05:47;;;;;;;1.80;1.70;;;38.90;34.40;;;;;;5033070;28;20623;-67
2022/06/01 08:08:14;;;;;;;2.30;2.10;;;39.40;34.20;;;;;;5031494;28;20632;-68
2022/06/01 08:10:41;;;;;;;1.70;1.70;;;38.20;34.30;;;;;;5029869;28;20629;-65
2022/06/01 08:13:13;;;;;;;1.83;1.73;;;37.80;34.60;;;;;;5029701;28;21220;-66
2022/06/01 08:15:46;;;;;;;2.13;2.03;;;37.30;35.20;;;;;;5011159;28;20617;-68
2022/06/01 08:18:16;;;;;;;2.07;1.80;;;37.80;34.80;;;;;;5009695;28;21084;-66
2022/06/01 08:20:44;;;;;;;2.17;2.03;;;38.80;34.70;;;;;;5008986;28;20624;-63
2022/06/01 08:23:18;;;;;;;3.10;2.10;;;39.70;34.00;;;;;;5009621;28;20726;-65
2022/06/01 08:25:45;;;;;;;1.67;1.57;;;40.00;33.70;;;;;;5011022;28;20621;-66
2022/06/01 08:28:12;;;;;;;1.93;1.93;;;39.70;33.50;;;;;;5011755;28;20728;-67
2022/06/01 08:30:40;;;;;;;1.57;1.47;;;38.60;33.90;;;;;;5029957;28;20997;-65
2022/06/01 08:33:07;;;;;;;2.27;1.70;;;39.20;34.10;;;;;;5019062;28;20636;-65
2022/06/01 08:35:37;;;;;;;2.13;1.60;;;38.80;34.10;;;;;;5024040;28;20648;-66
2022/06/01 08:38:05;;;;;;;3.00;2.00;;;39.00;33.90;;;;;;5029787;28;20651;-67
2022/06/01 08:40:36;;;;;;;2.20;1.70;;;40.60;33.80;;;;;;5015556;28;20645;-65
2022/06/01 08:43:02;;;;;;;1.90;1.80;;;41.80;32.90;;;;;;5010905;28;20614;-67
2022/06/01 08:45:30;;;;;;;2.50;2.30;;;42.50;32.70;;;;;;5019995;28;20644;-66
2022/06/01 08:48:04;;;;;;;2.10;2.00;;;43.70;31.90;;;;;;5030047;28;20644;-67
2022/06/01 08:50:35;;;;;;;4.10;1.97;;;44.30;31.50;;;;;;5015679;28;20688;-65
2022/06/01 08:53:04;;;;;;;1.60;1.60;;;44.90;31.40;;;;;;5010558;28;20612;-65
2022/06/01 08:55:56;;;;;;;1.60;1.60;;;45.10;31.20;;;;;;5022574;28;20727;-68
2022/06/01 08:58:38;;;;;;;1.97;1.87;;;45.20;31.10;;;;;;5021762;28;20743;-66
2022/06/01 09:01:30;;;;;;;1.83;1.73;;;44.50;31.10;;;;;;5027492;28;21062;-65
2022/06/01 09:04:01;;;;;;;1.90;1.80;;;44.30;30.80;;;;;;5011734;28;21027;-67
2022/06/01 09:06:42;;;;;;;2.13;1.87;;;45.50;30.70;;;;;;5022553;28;20639;-65
2022/06/01 09:09:47;;;;;;;1.60;1.50;;;47.00;30.40;;;;;;5027399;28;21017;-66
2022/06/01 09:12:14;;;;;;;4.20;1.67;;;47.90;29.80;;;;;;5008442;28;20767;-65
2022/06/01 09:14:45;;;;;;;2.53;1.80;;;48.00;30.30;;;;;;5011379;28;21269;-67
2022/06/01 09:17:11;;;;;;;1.83;1.73;;;48.20;29.70;;;;;;5009680;28;20629;-66
2022/06/01 09:22:37;;;;;;;1.70;1.60;;;47.80;29.50;;;;;;5030016;28;20659;-66
2022/06/01 09:25:19;;;;;;;1.70;1.70;;;48.30;29.40;;;;;;5020413;28;20719;-66
2022/06/01 09:27:59;;;;;;;1.90;1.80;;;47.60;29.30;;;;;;5009671;28;20596;-67
2022/06/01 09:30:38;;;;;;;1.70;1.60;;;46.50;29.40;;;;;;5015202;28;20637;-67
2022/06/01 09:33:20;;;;;;;3.60;1.87;;;46.50;29.70;;;;;;5010451;28;20609;-68
2022/06/01 09:36:00;;;;;;;1.37;1.30;;;46.70;29.60;;;;;;5010983;28;20645;-66
2022/06/01 09:38:47;;;;;;;1.50;1.50;;;47.20;29.40;;;;;;5027239;28;20662;-66
2022/06/01 09:41:22;;;;;;;1.70;1.60;;;48.20;29.30;;;;;;5015784;28;20629;-68
2022/06/01 09:44:02;;;;;;;1.53;1.47;;;48.90;29.00;;;;;;5009191;28;20665;-69
2022/06/01 09:46:35;;;;;;;1.30;1.30;;;48.10;28.80;;;;;;5011382;28;20632;-65
2022/06/01 09:49:17;;;;;;;1.60;1.50;;;46.90;29.30;;;;;;5027522;28;20751;-66
2022/06/01 09:51:46;;;;;;;1.57;1.57;;;46.10;29.50;;;;;;5032907;28;20977;-66
2022/06/01 09:54:24;;;;;;;1.80;1.80;;;45.10;29.70;;;;;;5031873;28;20715;-68
2022/06/01 09:56:52;;;;;;;1.50;1.40;;;44.30;29.90;;;;;;5026536;28;21076;-66
2022/06/01 10:07:45;;;;;;;1.57;1.57;;;40.00;31.70;;;;;;5032790;28;20720;-65
2022/06/01 10:10:26;;;;;;;1.63;1.57;;;41.20;31.30;;;;;;5029088;28;20707;-66
2022/06/01 10:12:56;;;;;;;3.83;1.80;;;41.20;31.40;;;;;;5017549;28;21184;-66
2022/06/01 10:15:41;;;;;;;3.90;1.70;;;41.00;31.40;;;;;;5030384;28;20628;-65
2022/06/01 10:20:55;;;;;;;1.67;1.57;;;38.20;32.30;;;;;;4935131;29;20660;-66
2022/06/01 10:23:28;;;;;;;1.93;1.83;;;36.60;33.10;;;;;;4936698;29;21198;-70
2022/06/01 10:26:01;;;;;;;1.97;1.90;;;35.30;34.10;;;;;;4935106;29;21220;-67
2022/06/01 10:28:39;;;;;;;2.00;1.90;;;33.90;34.90;;;;;;4934014;29;20991;-70
2022/06/01 10:31:21;;;;;;;3.07;1.87;;;32.80;36.20;;;;;;4916690;29;20640;-66
2022/06/01 10:33:58;;;;;;;1.60;1.50;;;31.50;37.30;;;;;;4922361;29;20640;-69
2022/06/01 10:36:43;;;;;;;1.50;1.40;;;30.90;38.10;;;;;;4931904;29;20651;-70
2022/06/01 10:39:16;;;;;;;1.50;1.40;;;30.70;38.50;;;;;;4934072;29;20886;-66
2022/06/01 10:42:04;;;;;;;2.17;1.97;;;30.20;38.60;;;;;;4939059;29;20738;-66
2022/06/01 10:44:55;;;;;;;1.67;1.57;;;29.60;38.90;;;;;;4952763;29;21290;-69
2022/06/01 10:47:39;;;;;;;1.80;1.70;;;29.20;39.40;;;;;;4934698;29;20629;-67
2022/06/01 10:50:12;;;;;;;3.60;1.73;;;28.90;39.60;;;;;;4934715;29;20660;-67
2022/06/01 10:52:45;;;;;;;2.10;1.90;;;28.50;40.20;;;;;;4942166;29;20700;-66
2022/06/01 10:55:17;;;;;;;1.90;1.80;;;28.50;40.60;;;;;;4934682;29;21094;-68
2022/06/01 10:57:46;;;;;;;1.80;1.70;;;28.50;40.40;;;;;;4934678;29;20655;-66
2022/06/01 11:00:21;;;;;;;1.70;1.60;;;28.50;40.80;;;;;;4934397;29;21285;-66
2022/06/01 11:03:23;;;;;;;1.83;1.73;;;28.50;40.70;;;;;;4933617;29;20674;-67
2022/06/01 11:06:31;;;;;;;1.63;1.53;;;28.30;40.40;;;;;;4916243;29;21029;-68
2022/06/01 11:09:17;;;;;;;1.97;1.80;;;28.00;41.40;;;;;;4931085;29;20634;-67
2022/06/01 11:11:59;;;;;;;2.60;1.90;;;27.90;41.40;;;;;;4926330;29;24825;-68
2022/06/01 11:14:53;;;;;;;1.30;1.30;;;27.30;41.40;;;;;;4935096;29;20592;-66
2022/06/01 11:17:31;;;;;;;1.90;1.80;;;27.00;41.70;;;;;;4940859;29;20671;-68
2022/06/01 11:20:23;;;;;;;2.10;1.80;;;27.00;42.10;;;;;;4942626;29;21039;-67
2022/06/01 11:22:55;;;;;;;1.67;1.30;;;27.10;41.60;;;;;;4934390;29;20649;-68
2022/06/01 11:25:27;;;;;;;1.90;1.20;;;27.20;40.30;;;;;;4934574;29;20656;-67
2022/06/01 11:28:15;;;;;;;4.03;1.60;;;27.40;40.60;;;;;;4934793;29;20636;-66
2022/06/01 11:31:14;;;;;;;1.97;1.53;;;27.50;40.60;;;;;;4934731;29;20631;-66
2022/06/01 11:33:50;;;;;;;1.20;1.20;;;27.60;40.30;;;;;;4935117;29;20629;-66
2022/06/01 11:36:29;;;;;;;1.97;1.30;;;27.70;40.10;;;;;;4934182;29;20620;-65
2022/06/01 11:39:11;;;;;;;1.50;1.40;;;27.70;40.00;;;;;;4935788;29;21208;-65
2022/06/01 11:41:41;;;;;;;3.70;1.40;;;27.40;40.00;;;;;;4949803;29;20629;-65
2022/06/01 11:44:14;;;;;;;;;;;27.10;39.90;;;;;;4934052;29;20483;-65
2022/06/01 11:46:51;;;;;;;1.67;1.58;;;26.80;40.80;;;;;;4931658;29;20726;-67
2022/06/01 11:49:36;;;;;;;1.97;1.20;;;26.70;40.10;;;;;;4933209;29;20700;-67
2022/06/01 11:52:20;;;;;;;0.90;0.90;;;26.70;40.20;;;;;;4932810;29;20646;-65
2022/06/01 11:55:19;;;;;;;1.45;1.35;;;26.60;40.00;;;;;;4934099;29;24422;-67
2022/06/01 11:58:04;;;;;;;2.00;1.42;;;26.30;39.40;;;;;;4932561;29;24430;-66
2022/06/01 12:00:31;;;;;;;;;;;26.20;40.30;;;;;;4934122;29;20044;-66
2022/06/01 12:03:01;;;;;;;;;;;26.20;40.20;;;;;;4915171;29;19929;-67
2022/06/01 12:05:27;;;;;;;;;;;26.20;40.20;;;;;;4920229;29;19977;-66
2022/06/01 12:08:01;;;;;;;;;;;26.30;40.40;;;;;;4934806;29;19941;-66
2022/06/01 12:10:28;;;;;;;;;;;26.20;40.50;;;;;;4933090;29;19974;-66
2022/06/01 12:12:54;;;;;;;0.97;0.97;;;25.90;40.80;;;;;;4934075;29;20245;-66
2022/06/01 12:15:38;;;;;;;1.07;1.07;;;25.60;41.40;;;;;;4933094;29;20637;-67
2022/06/01 12:18:11;;;;;;;2.50;1.23;;;25.40;42.10;;;;;;4933148;29;20627;-67
2022/06/01 12:20:38;;;;;;;2.37;1.53;;;25.40;42.40;;;;;;4934660;29;20663;-66
2022/06/01 12:28:48;;;;;;;3.30;1.33;;;25.80;40.90;;;;;;4932212;29;20788;-67
2022/06/01 12:31:20;;;;;;;1.70;1.00;;;25.70;40.30;;;;;;4933555;29;20641;-66
2022/06/01 12:34:07;;;;;;;1.33;0.80;;;25.50;40.50;;;;;;4934007;29;20632;-66
2022/06/01 12:36:42;;;;;;;1.23;1.20;;;25.40;41.10;;;;;;4913537;29;21151;-65
2022/06/01 12:39:18;;;;;;;2.30;1.40;;;25.50;41.20;;;;;;4928520;29;20644;-67
2022/06/01 12:41:53;;;;;;;1.53;1.23;;;25.50;41.10;;;;;;4933823;29;20619;-66
2022/06/01 12:44:21;;;;;;;2.03;1.93;;;25.50;42.40;;;;;;4932851;29;20680;-66
2022/06/01 12:46:51;;;;;;;1.47;1.30;;;25.60;42.00;;;;;;4933853;29;20708;-67